Kezdőlap
METAR-TAF:

METAR-TAF

Repülőterek :

Yacuíba, Bolívia

földrajzi szélesség: 21-57S, földrajzi hosszúság: 063-39W, magasság: 645 m

Jelenlegi meteorológiai megfigyelések

A jelentés 11 órával és 31 perccel ezelõtt készült, 20:00 UTC
Délnyugati szél 5 kt
Hőmérséklet 11°C
Páratartalom 76%
Légköri nyomás 1025 hPa
Látótávolság 10 km, vagy több
Kevés felhő 2000 lábon
Szakadozott felhőzet 7000 lábon

METAR: SLYA 272000Z 22005KT 9999 FEW020 BKN070 11/07 Q1025

Idő: 03:31 (07:31 UTC)


TAF: hiányzik

Meteorológiai megfigyelések és előrejelzések több, mint 4000 repülőtéren (METAR és TAF jelentéseket).

A térképen piros és sárga pontok jelzik az elérhető meteorológiai állomásokat.

Mozgassa az egeret a pont fölött, hogy megjelenjen az állomás neve.

Azután kattintson az időjárási megfigyelések és előrejelzések megtekintéséhez.

A térkép megváltoztatása: kattintson a fekete keresztel jelölt zöld gombra ráközelítéshez, a vonallal jelölt zöld gombra távolításhoz, vagy a zöld nyilakra a szomszédos térképek eléréséhez.


METAR-TAF: